Time;durP1;ratioP1;P1;durP2;ratioP2;P2;SDS_P1;SDS_P2;PMS_P1;PMS_P2;Temp;Humidity;BMP_temperature;BMP_pressure;BME280_temperature;BME280_humidity;BME280_pressure;Samples;Min_cycle;Max_cycle;Signal;HPM_P1;HPM_P2
2021/07/08 00:00:45;;;;;;;16.85;5.40;;;17.70;99.90;;;;;;5030526;28;20014;-86
2021/07/08 00:03:10;;;;;;;15.18;5.35;;;17.70;99.90;;;;;;5030562;28;20037;-86
2021/07/08 00:05:42;;;;;;;10.50;5.10;;;17.70;99.90;;;;;;5028150;28;20018;-85
2021/07/08 00:08:10;;;;;;;11.13;5.25;;;17.70;99.90;;;;;;5019316;28;20028;-85
2021/07/08 00:10:39;;;;;;;12.80;4.65;;;17.70;99.90;;;;;;5024441;28;20026;-85
2021/07/08 00:13:06;;;;;;;15.00;5.57;;;17.70;99.90;;;;;;5030667;28;20029;-86
2021/07/08 00:15:33;;;;;;;11.85;4.90;;;17.80;99.90;;;;;;5030697;28;20048;-85
2021/07/08 00:18:00;;;;;;;9.60;4.50;;;17.70;99.90;;;;;;5030314;28;20390;-86
2021/07/08 00:20:28;;;;;;;10.00;4.90;;;17.70;99.90;;;;;;5030073;28;20022;-85
2021/07/08 00:22:53;;;;;;;10.13;4.75;;;17.70;99.90;;;;;;5030199;28;20040;-85
2021/07/08 00:25:26;;;;;;;10.15;5.28;;;17.70;99.90;;;;;;5030171;28;20025;-85
2021/07/08 00:27:52;;;;;;;9.05;5.07;;;17.60;99.90;;;;;;5030164;28;20017;-85
2021/07/08 00:30:19;;;;;;;10.65;4.85;;;17.50;99.90;;;;;;5030267;28;20026;-85
2021/07/08 00:32:45;;;;;;;12.77;5.50;;;17.60;99.90;;;;;;5030579;28;20409;-85
2021/07/08 00:35:11;;;;;;;12.68;6.22;;;17.60;99.90;;;;;;5030043;28;20025;-86
2021/07/08 00:37:38;;;;;;;11.88;5.43;;;17.70;99.90;;;;;;5022405;28;20112;-85
2021/07/08 00:40:05;;;;;;;12.10;5.20;;;17.60;99.90;;;;;;5029819;28;20044;-85
2021/07/08 00:42:31;;;;;;;13.85;5.30;;;17.60;99.90;;;;;;5029692;28;20490;-85
2021/07/08 00:44:57;;;;;;;11.43;5.55;;;17.70;99.90;;;;;;5029930;28;20021;-85
2021/07/08 00:47:22;;;;;;;15.80;5.65;;;17.60;99.90;;;;;;5030067;28;20045;-85
2021/07/08 00:49:50;;;;;;;11.95;5.65;;;17.60;99.90;;;;;;5029848;28;20537;-85
2021/07/08 00:52:16;;;;;;;9.73;5.18;;;17.60;99.90;;;;;;5029711;28;20022;-85
2021/07/08 00:54:41;;;;;;;11.20;5.28;;;17.50;99.90;;;;;;5030086;28;20025;-85
2021/07/08 00:57:07;;;;;;;14.98;5.35;;;17.50;99.90;;;;;;5029856;28;20026;-85
2021/07/08 00:59:41;;;;;;;11.00;4.72;;;17.50;99.90;;;;;;5029677;28;20323;-85
2021/07/08 01:02:06;;;;;;;14.88;5.57;;;17.50;99.90;;;;;;5029562;28;20040;-85
2021/07/08 01:04:33;;;;;;;13.63;5.03;;;17.50;99.90;;;;;;5029962;28;20096;-85
2021/07/08 01:06:58;;;;;;;11.68;5.60;;;17.50;99.90;;;;;;5016995;28;20556;-85
2021/07/08 01:09:25;;;;;;;12.73;5.65;;;17.50;99.90;;;;;;5029065;28;20014;-85
2021/07/08 01:11:50;;;;;;;11.35;5.70;;;17.40;99.90;;;;;;5029752;28;20029;-85
2021/07/08 01:14:16;;;;;;;11.80;4.88;;;17.40;99.90;;;;;;5029659;28;20017;-85
2021/07/08 01:16:42;;;;;;;9.48;4.93;;;17.30;99.90;;;;;;5008584;28;20022;-85
2021/07/08 01:19:07;;;;;;;17.83;5.13;;;17.30;99.90;;;;;;5024902;28;20696;-85
2021/07/08 01:21:35;;;;;;;9.52;4.93;;;17.20;99.90;;;;;;5029401;28;20036;-85
2021/07/08 01:24:03;;;;;;;11.65;4.90;;;17.20;99.90;;;;;;5030225;28;20024;-85
2021/07/08 01:26:29;;;;;;;16.70;5.32;;;17.20;99.90;;;;;;5029532;28;20029;-85
2021/07/08 01:28:56;;;;;;;10.35;4.63;;;17.20;99.90;;;;;;5029593;28;20068;-85
2021/07/08 01:31:23;;;;;;;9.85;4.82;;;17.20;99.90;;;;;;5032566;28;20029;-85
2021/07/08 01:33:49;;;;;;;11.13;4.95;;;17.20;99.90;;;;;;5033781;28;20385;-85
2021/07/08 01:36:16;;;;;;;13.07;5.32;;;17.10;99.90;;;;;;5033607;28;20112;-85
2021/07/08 01:38:42;;;;;;;10.90;4.75;;;17.20;99.90;;;;;;5033412;28;20560;-86
2021/07/08 01:41:08;;;;;;;11.13;5.22;;;17.30;99.90;;;;;;5033099;28;20033;-85
2021/07/08 01:43:38;;;;;;;12.25;4.80;;;17.10;99.90;;;;;;5018516;28;20498;-85
2021/07/08 01:46:06;;;;;;;9.93;5.15;;;17.10;99.90;;;;;;5033394;28;20025;-85
2021/07/08 01:48:33;;;;;;;11.40;4.82;;;17.10;99.90;;;;;;5031020;28;20013;-85
2021/07/08 01:51:04;;;;;;;8.82;5.20;;;17.10;99.90;;;;;;5033238;28;20083;-85
2021/07/08 01:53:31;;;;;;;10.88;4.53;;;17.10;99.90;;;;;;5033133;28;20594;-85
2021/07/08 01:55:57;;;;;;;11.70;4.90;;;17.00;99.90;;;;;;5033122;28;20520;-85
2021/07/08 01:58:25;;;;;;;12.45;4.82;;;17.00;99.90;;;;;;5032846;28;20041;-85
2021/07/08 02:00:52;;;;;;;11.27;5.03;;;16.90;99.90;;;;;;5033157;28;20021;-85
2021/07/08 02:03:17;;;;;;;10.07;4.95;;;16.90;99.90;;;;;;5033213;28;20108;-87
2021/07/08 02:05:43;;;;;;;11.95;4.90;;;16.90;99.90;;;;;;5030580;28;20105;-85
2021/07/08 02:08:09;;;;;;;10.18;5.43;;;16.90;99.90;;;;;;5022371;28;20028;-85
2021/07/08 02:10:35;;;;;;;11.93;4.30;;;16.90;99.90;;;;;;5032976;28;20405;-85
2021/07/08 02:13:01;;;;;;;8.82;4.65;;;16.90;99.90;;;;;;5033102;28;20382;-84
2021/07/08 02:15:26;;;;;;;10.95;4.45;;;16.90;99.90;;;;;;5032576;28;20025;-84
2021/07/08 02:17:52;;;;;;;8.48;4.00;;;16.90;99.90;;;;;;5032771;28;20048;-85
2021/07/08 02:20:18;;;;;;;7.45;3.90;;;16.90;99.90;;;;;;5032642;28;20025;-85
2021/07/08 02:22:45;;;;;;;9.05;3.80;;;16.90;99.90;;;;;;5032435;28;20033;-85
2021/07/08 02:25:12;;;;;;;6.72;4.10;;;16.90;99.90;;;;;;5020501;28;20138;-85
2021/07/08 02:27:38;;;;;;;6.95;3.72;;;17.00;99.90;;;;;;5032365;28;20026;-85
2021/07/08 02:30:15;;;;;;;9.48;4.20;;;16.90;99.90;;;;;;5032300;28;20044;-85
2021/07/08 02:32:42;;;;;;;6.38;3.70;;;16.90;99.90;;;;;;5032490;28;20025;-85
2021/07/08 02:35:09;;;;;;;10.10;3.90;;;16.90;99.90;;;;;;5017901;28;20022;-85
2021/07/08 02:37:37;;;;;;;6.30;3.65;;;17.00;99.90;;;;;;5031049;28;20164;-86
2021/07/08 02:40:06;;;;;;;7.07;3.67;;;16.90;99.90;;;;;;5032224;28;20169;-85
2021/07/08 02:42:32;;;;;;;8.23;4.20;;;16.80;99.90;;;;;;5031528;28;20095;-85
2021/07/08 02:44:58;;;;;;;7.75;3.88;;;16.80;99.90;;;;;;5032002;28;20022;-85
2021/07/08 02:47:24;;;;;;;8.27;4.47;;;16.90;99.90;;;;;;5020942;28;20172;-85
2021/07/08 02:49:49;;;;;;;8.20;4.30;;;16.90;99.90;;;;;;5031915;28;20615;-85
2021/07/08 02:52:15;;;;;;;7.30;3.85;;;16.90;99.90;;;;;;5032037;28;20108;-85
2021/07/08 02:54:41;;;;;;;8.73;4.22;;;16.90;99.90;;;;;;5024604;28;20021;-85
2021/07/08 02:57:06;;;;;;;11.85;5.03;;;16.90;99.90;;;;;;5031977;28;20029;-85
2021/07/08 02:59:32;;;;;;;7.70;3.72;;;16.90;99.90;;;;;;5031790;28;20526;-85
2021/07/08 03:01:57;;;;;;;7.88;4.22;;;16.90;99.90;;;;;;5028111;28;20032;-85
2021/07/08 03:04:23;;;;;;;8.82;4.32;;;16.90;99.90;;;;;;5031889;28;20083;-85
2021/07/08 03:06:49;;;;;;;10.70;4.05;;;16.90;99.90;;;;;;5031519;28;20059;-84
2021/07/08 03:09:15;;;;;;;11.73;4.32;;;16.90;99.90;;;;;;5017652;28;20049;-85
2021/07/08 03:11:40;;;;;;;11.80;4.35;;;16.90;99.90;;;;;;5031889;28;20315;-84
2021/07/08 03:14:06;;;;;;;9.70;4.80;;;16.90;99.90;;;;;;5031721;28;20088;-85
2021/07/08 03:16:32;;;;;;;7.22;4.00;;;16.90;99.90;;;;;;5024071;28;20164;-85
2021/07/08 03:18:58;;;;;;;10.73;4.50;;;17.00;99.90;;;;;;4994439;28;20128;-85
2021/07/08 03:21:23;;;;;;;8.57;4.00;;;17.00;99.90;;;;;;5031245;28;20082;-85
2021/07/08 03:23:49;;;;;;;9.95;4.60;;;17.10;99.90;;;;;;5031868;28;20049;-85
2021/07/08 03:26:15;;;;;;;11.93;4.65;;;17.10;99.90;;;;;;5031271;28;20524;-84
2021/07/08 03:28:40;;;;;;;6.18;4.10;;;17.20;99.90;;;;;;5031463;28;20029;-85
2021/07/08 03:31:06;;;;;;;10.10;4.80;;;17.20;99.90;;;;;;5026046;28;20029;-88
2021/07/08 03:33:32;;;;;;;12.13;4.25;;;17.20;99.90;;;;;;5031255;28;20022;-85
2021/07/08 03:35:57;;;;;;;8.57;4.22;;;17.20;99.90;;;;;;5031581;28;20513;-85
2021/07/08 03:38:23;;;;;;;7.28;4.07;;;17.10;99.90;;;;;;5031026;28;20413;-86
2021/07/08 03:40:49;;;;;;;9.07;3.63;;;17.20;99.90;;;;;;5021607;28;20039;-86
2021/07/08 03:43:14;;;;;;;9.73;3.90;;;17.20;99.90;;;;;;5030814;28;20021;-84
2021/07/08 03:45:40;;;;;;;15.07;4.18;;;17.00;99.90;;;;;;5031119;28;20100;-85
2021/07/08 03:48:06;;;;;;;7.53;3.70;;;17.00;99.90;;;;;;5025387;28;20032;-85
2021/07/08 03:50:32;;;;;;;10.18;3.92;;;17.00;99.90;;;;;;5030764;28;20056;-85
2021/07/08 03:52:58;;;;;;;10.57;4.40;;;17.00;99.90;;;;;;5030960;28;20029;-85
2021/07/08 03:55:24;;;;;;;8.57;3.92;;;17.00;99.90;;;;;;5030698;28;20323;-85
2021/07/08 03:57:53;;;;;;;5.93;3.78;;;17.10;99.90;;;;;;5030509;28;20050;-85
2021/07/08 04:00:23;;;;;;;8.52;3.95;;;17.10;99.90;;;;;;5030903;28;20048;-84
2021/07/08 04:02:49;;;;;;;8.77;4.00;;;17.10;99.90;;;;;;5030751;28;20064;-85
2021/07/08 04:05:15;;;;;;;7.95;3.72;;;17.10;99.90;;;;;;5026325;28;20489;-85
2021/07/08 04:07:40;;;;;;;9.07;4.10;;;17.10;99.90;;;;;;5016755;28;20055;-85
2021/07/08 04:10:07;;;;;;;8.32;3.90;;;17.10;99.90;;;;;;5020436;28;20018;-85
2021/07/08 04:12:32;;;;;;;8.48;4.32;;;17.10;99.90;;;;;;5030463;28;20028;-84
2021/07/08 04:14:58;;;;;;;9.80;3.78;;;17.10;99.90;;;;;;5030522;28;20550;-85
2021/07/08 04:17:23;;;;;;;7.80;3.40;;;17.10;99.90;;;;;;5030510;28;20064;-87
2021/07/08 04:19:49;;;;;;;6.60;3.72;;;17.20;99.90;;;;;;5009494;28;20029;-85
2021/07/08 04:22:15;;;;;;;5.97;3.35;;;17.10;99.90;;;;;;5023120;28;20042;-85
2021/07/08 04:24:41;;;;;;;7.72;3.63;;;17.10;99.90;;;;;;5027872;28;20017;-85
2021/07/08 04:27:06;;;;;;;8.43;3.97;;;17.10;99.90;;;;;;5030566;28;20030;-85
2021/07/08 04:29:32;;;;;;;5.28;3.30;;;17.10;99.90;;;;;;5025910;28;20047;-85
2021/07/08 04:31:58;;;;;;;6.50;3.88;;;17.10;99.90;;;;;;5030482;28;20063;-85
2021/07/08 04:34:23;;;;;;;6.22;3.47;;;17.10;99.90;;;;;;5030356;28;20347;-85
2021/07/08 04:36:49;;;;;;;5.15;3.58;;;17.00;99.90;;;;;;5016030;28;20479;-85
2021/07/08 04:39:15;;;;;;;8.25;3.50;;;17.00;99.90;;;;;;5028816;28;20017;-85
2021/07/08 04:41:40;;;;;;;8.80;3.50;;;17.10;99.90;;;;;;5030029;28;20025;-85
2021/07/08 04:44:06;;;;;;;5.40;3.10;;;17.10;99.90;;;;;;5030029;28;20056;-84
2021/07/08 04:46:33;;;;;;;5.30;3.38;;;17.00;99.90;;;;;;5025503;28;20301;-85
2021/07/08 04:48:59;;;;;;;7.57;3.75;;;17.10;99.90;;;;;;5029949;28;20021;-85
2021/07/08 04:51:24;;;;;;;5.57;2.85;;;17.20;99.90;;;;;;5029784;28;20017;-85
2021/07/08 04:53:51;;;;;;;6.05;3.53;;;17.20;99.90;;;;;;5029733;28;20112;-85
2021/07/08 04:56:17;;;;;;;6.65;4.20;;;17.20;99.90;;;;;;5029939;28;20097;-85
2021/07/08 04:58:42;;;;;;;8.80;4.20;;;17.20;99.90;;;;;;5018472;28;20469;-85
2021/07/08 05:01:08;;;;;;;5.65;3.65;;;17.20;99.90;;;;;;5019848;28;20036;-86
2021/07/08 05:03:34;;;;;;;8.38;4.22;;;17.20;99.90;;;;;;5034732;28;20034;-86
2021/07/08 05:06:00;;;;;;;6.32;4.22;;;17.10;99.90;;;;;;5038218;28;20497;-86
2021/07/08 05:08:26;;;;;;;5.53;4.10;;;17.10;99.90;;;;;;5034031;28;20025;-85
2021/07/08 05:10:52;;;;;;;6.38;4.05;;;17.00;99.90;;;;;;5046674;28;20095;-85
2021/07/08 05:13:17;;;;;;;8.07;3.95;;;17.00;99.90;;;;;;5037367;28;20044;-86
2021/07/08 05:15:43;;;;;;;6.97;4.30;;;16.90;99.90;;;;;;5030211;28;20516;-86
2021/07/08 05:18:09;;;;;;;5.90;4.07;;;16.90;99.90;;;;;;5036333;28;20046;-87
2021/07/08 05:20:34;;;;;;;5.75;3.63;;;16.90;99.90;;;;;;5036210;28;20029;-86
2021/07/08 05:23:02;;;;;;;7.15;4.10;;;16.90;99.90;;;;;;5036227;28;20037;-86
2021/07/08 05:25:29;;;;;;;8.13;4.07;;;16.90;99.90;;;;;;5036312;28;20021;-86
2021/07/08 05:27:54;;;;;;;6.38;4.13;;;16.90;99.90;;;;;;5032279;28;20017;-85
2021/07/08 05:30:20;;;;;;;6.95;4.20;;;16.90;99.90;;;;;;5034740;28;20108;-86
2021/07/08 05:32:46;;;;;;;6.28;4.05;;;16.90;99.90;;;;;;5034649;28;20029;-86
2021/07/08 05:35:12;;;;;;;6.47;3.85;;;17.00;99.90;;;;;;5036134;28;20390;-85
2021/07/08 05:37:38;;;;;;;6.82;4.18;;;17.10;99.90;;;;;;5035353;28;20025;-85
2021/07/08 05:40:05;;;;;;;8.63;4.43;;;17.20;99.90;;;;;;5018073;28;20053;-84
2021/07/08 05:42:30;;;;;;;5.70;3.83;;;17.30;99.90;;;;;;5035933;28;20120;-84
2021/07/08 05:44:57;;;;;;;8.20;4.03;;;17.40;99.90;;;;;;5035597;28;20100;-85
2021/07/08 05:47:22;;;;;;;6.75;3.85;;;17.50;99.90;;;;;;5034439;28;20025;-84
2021/07/08 05:49:48;;;;;;;6.38;4.07;;;17.60;99.90;;;;;;5034249;28;20025;-85
2021/07/08 05:52:14;;;;;;;6.18;3.72;;;17.70;99.90;;;;;;5032966;28;20056;-85
2021/07/08 05:54:39;;;;;;;6.75;3.90;;;17.80;99.90;;;;;;5032778;28;20155;-85
2021/07/08 05:57:05;;;;;;;7.88;3.83;;;17.90;99.90;;;;;;5017607;28;20120;-85
2021/07/08 05:59:31;;;;;;;7.65;4.25;;;17.90;99.90;;;;;;5033857;28;20045;-85
2021/07/08 06:01:56;;;;;;;7.78;3.45;;;18.00;99.90;;;;;;5017659;28;20413;-85
2021/07/08 06:04:22;;;;;;;6.25;3.75;;;18.10;99.90;;;;;;5034582;28;20025;-85
2021/07/08 06:06:48;;;;;;;9.40;4.03;;;18.10;99.90;;;;;;5034898;28;20098;-86
2021/07/08 06:09:14;;;;;;;6.00;3.60;;;18.20;99.90;;;;;;5022164;28;20402;-86
2021/07/08 06:11:39;;;;;;;8.82;3.97;;;18.30;99.90;;;;;;5026762;28;20402;-85
2021/07/08 06:14:05;;;;;;;7.97;3.70;;;18.30;99.90;;;;;;5011662;28;20032;-85
2021/07/08 06:16:31;;;;;;;5.85;3.80;;;18.40;99.90;;;;;;5018682;28;20037;-85
2021/07/08 06:18:56;;;;;;;6.40;3.28;;;18.50;99.90;;;;;;5017975;28;20025;-86
2021/07/08 06:21:24;;;;;;;7.32;3.72;;;18.50;99.90;;;;;;5017320;28;20508;-86
2021/07/08 06:23:50;;;;;;;7.18;2.92;;;18.50;99.90;;;;;;5017758;28;20080;-86
2021/07/08 06:26:15;;;;;;;6.70;3.15;;;18.60;99.90;;;;;;5021272;28;20018;-87
2021/07/08 06:28:42;;;;;;;8.32;3.53;;;18.70;99.90;;;;;;5000652;28;20026;-86
2021/07/08 06:31:08;;;;;;;6.07;3.17;;;18.70;99.90;;;;;;5001510;28;20453;-86
2021/07/08 06:33:33;;;;;;;7.85;3.28;;;18.70;99.90;;;;;;5019860;28;20018;-86
2021/07/08 06:35:59;;;;;;;6.57;3.05;;;18.80;99.90;;;;;;5017296;28;20029;-86
2021/07/08 06:38:25;;;;;;;7.13;3.45;;;18.70;99.90;;;;;;5017173;28;20042;-86
2021/07/08 06:40:51;;;;;;;6.70;3.08;;;18.80;99.90;;;;;;5018453;28;20033;-79
2021/07/08 06:43:16;;;;;;;9.10;3.03;;;18.90;99.90;;;;;;5026756;28;20060;-79
2021/07/08 06:45:42;;;;;;;6.32;2.63;;;18.90;99.90;;;;;;5033962;28;20014;-79
2021/07/08 06:48:09;;;;;;;5.40;2.78;;;18.90;99.90;;;;;;5027661;28;20112;-79
2021/07/08 06:50:36;;;;;;;7.30;3.40;;;19.00;99.90;;;;;;5018528;28;20056;-79
2021/07/08 06:53:05;;;;;;;8.18;2.92;;;19.20;99.90;;;;;;5019636;28;20025;-78
2021/07/08 06:55:34;;;;;;;6.57;3.00;;;19.30;99.90;;;;;;5019114;28;20082;-79
2021/07/08 06:58:00;;;;;;;8.60;3.20;;;19.30;99.90;;;;;;5021030;28;20050;-79
2021/07/08 07:00:37;;;;;;;6.93;3.20;;;19.30;99.90;;;;;;5016288;28;20028;-79
2021/07/08 07:03:04;;;;;;;8.23;2.78;;;19.30;99.90;;;;;;5013574;28;20421;-78
2021/07/08 07:05:31;;;;;;;8.45;2.60;;;19.30;99.90;;;;;;5016560;28;20033;-79
2021/07/08 07:07:57;;;;;;;6.30;2.85;;;19.30;99.90;;;;;;5010291;28;20030;-79
2021/07/08 07:10:26;;;;;;;5.45;2.72;;;19.30;99.90;;;;;;5019859;28;20057;-80
2021/07/08 07:12:54;;;;;;;5.57;2.80;;;19.30;99.90;;;;;;5029051;28;20068;-79
2021/07/08 07:15:28;;;;;;;7.78;2.63;;;19.30;99.90;;;;;;5029420;28;20478;-79
2021/07/08 07:17:54;;;;;;;5.90;2.88;;;19.20;99.90;;;;;;5028854;28;20036;-79
2021/07/08 07:20:21;;;;;;;9.82;2.95;;;19.10;99.90;;;;;;5019856;28;20113;-78
2021/07/08 07:22:48;;;;;;;6.18;2.65;;;19.10;99.90;;;;;;5017393;28;20040;-79
2021/07/08 07:25:22;;;;;;;9.82;3.00;;;19.20;99.90;;;;;;5004862;28;20026;-79
2021/07/08 07:27:50;;;;;;;;;;;19.40;99.90;;;;;;5015234;28;20112;-79
2021/07/08 07:30:17;;;;;;;5.72;2.33;;;19.60;99.90;;;;;;5011924;28;19925;-79
2021/07/08 07:32:43;;;;;;;7.30;3.00;;;19.70;99.90;;;;;;5012312;28;20025;-79
2021/07/08 07:35:10;;;;;;;7.28;2.80;;;19.80;99.90;;;;;;5011480;28;20034;-79
2021/07/08 07:37:35;;;;;;;5.40;2.60;;;19.80;99.90;;;;;;5011708;28;20064;-79
2021/07/08 07:40:01;;;;;;;8.90;2.40;;;19.80;99.90;;;;;;5012102;28;20030;-79
2021/07/08 07:42:27;;;;;;;5.43;2.17;;;19.80;99.90;;;;;;5016719;28;20033;-79
2021/07/08 07:44:53;;;;;;;6.05;2.05;;;19.80;99.90;;;;;;5015049;28;20452;-79
2021/07/08 07:47:20;;;;;;;6.85;2.65;;;19.90;99.90;;;;;;5000549;28;20148;-79
2021/07/08 07:49:46;;;;;;;7.18;2.25;;;20.00;99.90;;;;;;5014361;28;20044;-79
2021/07/08 07:52:13;;;;;;;6.07;2.08;;;20.20;99.90;;;;;;5017591;28;20041;-79
2021/07/08 07:54:40;;;;;;;8.35;2.60;;;20.30;99.90;;;;;;5022743;28;20083;-78
2021/07/08 07:57:08;;;;;;;6.70;2.17;;;20.20;99.90;;;;;;5016151;28;20044;-78
2021/07/08 07:59:34;;;;;;;8.40;2.90;;;20.30;99.90;;;;;;5022380;28;20033;-78
2021/07/08 08:02:01;;;;;;;4.95;1.98;;;20.20;99.90;;;;;;5024740;28;20025;-78
2021/07/08 08:04:30;;;;;;;7.30;2.47;;;20.10;99.90;;;;;;5022948;28;20490;-78
2021/07/08 08:09:41;;;;;;;4.97;2.38;;;20.50;99.90;;;;;;5022859;28;20703;-78
2021/07/08 08:12:07;;;;;;;8.32;2.78;;;20.70;99.90;;;;;;5017567;28;20018;-78
2021/07/08 08:14:33;;;;;;;8.48;2.70;;;20.70;99.90;;;;;;5022253;28;20551;-78
2021/07/08 08:16:59;;;;;;;5.97;2.45;;;20.80;99.90;;;;;;5018458;28;20021;-78
2021/07/08 08:19:25;;;;;;;8.45;2.55;;;20.70;99.90;;;;;;5009810;28;20014;-78
2021/07/08 08:21:51;;;;;;;9.02;3.28;;;20.50;99.90;;;;;;5020028;28;20474;-78
2021/07/08 08:24:16;;;;;;;7.72;2.70;;;20.20;99.90;;;;;;5018563;28;20022;-78
2021/07/08 08:26:42;;;;;;;5.97;2.80;;;19.80;99.90;;;;;;5022115;28;20033;-78
2021/07/08 08:29:08;;;;;;;6.45;2.25;;;19.70;99.90;;;;;;5017059;28;20018;-78
2021/07/08 08:31:34;;;;;;;8.88;2.65;;;19.80;99.90;;;;;;5016712;28;20116;-78
2021/07/08 08:33:59;;;;;;;4.72;2.08;;;19.70;99.90;;;;;;5016848;28;20096;-78
2021/07/08 08:36:25;;;;;;;6.22;1.95;;;19.60;99.90;;;;;;5020042;28;20494;-78
2021/07/08 08:38:51;;;;;;;3.90;1.55;;;19.50;99.90;;;;;;5014038;28;20037;-78
2021/07/08 08:41:16;;;;;;;3.85;1.35;;;19.50;99.90;;;;;;5023630;28;20044;-78
2021/07/08 08:43:42;;;;;;;4.07;1.50;;;19.40;99.90;;;;;;5029034;28;20064;-78
2021/07/08 08:46:08;;;;;;;4.03;1.23;;;19.30;99.90;;;;;;5028550;28;20083;-78
2021/07/08 08:48:34;;;;;;;3.60;1.30;;;19.10;99.90;;;;;;5026047;28;20030;-78
2021/07/08 08:51:00;;;;;;;3.38;1.50;;;19.00;99.90;;;;;;5017536;28;20026;-78
2021/07/08 08:53:26;;;;;;;5.60;1.75;;;19.00;99.90;;;;;;5020326;28;20025;-78
2021/07/08 08:55:52;;;;;;;5.22;1.27;;;18.90;99.90;;;;;;5021402;28;20033;-78
2021/07/08 08:58:22;;;;;;;4.07;1.83;;;19.10;99.90;;;;;;5018254;28;20068;-79
2021/07/08 09:00:54;;;;;;;4.32;1.58;;;19.30;99.90;;;;;;5022343;28;20032;-81
2021/07/08 09:03:28;;;;;;;6.47;1.80;;;19.30;99.90;;;;;;5018281;28;20482;-80
2021/07/08 09:06:10;;;;;;;3.58;1.40;;;19.50;99.90;;;;;;5018383;28;20049;-79
2021/07/08 09:08:39;;;;;;;4.30;1.60;;;19.70;99.90;;;;;;5021935;28;20029;-79
2021/07/08 09:11:19;;;;;;;5.32;1.80;;;20.10;99.90;;;;;;5028845;28;20545;-79
2021/07/08 09:14:02;;;;;;;7.57;1.13;;;20.50;99.90;;;;;;5029576;28;20060;-79
2021/07/08 09:16:39;;;;;;;5.55;1.40;;;20.50;99.90;;;;;;5029221;28;20036;-78
2021/07/08 09:19:08;;;;;;;5.63;1.75;;;20.20;99.90;;;;;;5022673;28;20351;-73
2021/07/08 09:21:40;;;;;;;4.85;1.90;;;19.80;99.90;;;;;;5028965;28;20037;-78
2021/07/08 09:24:09;;;;;;;8.43;2.03;;;19.70;99.90;;;;;;5028779;28;20371;-77
2021/07/08 09:26:37;;;;;;;4.22;1.58;;;19.50;99.90;;;;;;5022328;28;20482;-77
2021/07/08 09:29:03;;;;;;;6.03;2.08;;;19.30;99.90;;;;;;5022432;28;20055;-76
2021/07/08 09:31:28;;;;;;;6.15;1.95;;;19.30;99.90;;;;;;5024595;28;20061;-76
2021/07/08 09:33:54;;;;;;;6.45;1.77;;;19.10;99.90;;;;;;5027522;28;20596;-77
2021/07/08 09:36:20;;;;;;;5.03;1.90;;;19.10;99.90;;;;;;5014659;28;20033;-75
2021/07/08 09:38:47;;;;;;;4.32;1.77;;;19.10;99.90;;;;;;5018710;28;20020;-75
2021/07/08 09:41:21;;;;;;;8.35;2.17;;;19.20;99.90;;;;;;5023094;28;20025;-75
2021/07/08 09:43:48;;;;;;;5.72;2.17;;;19.20;99.90;;;;;;5014682;28;20041;-75
2021/07/08 09:46:15;;;;;;;5.97;2.17;;;19.50;99.90;;;;;;5013132;28;20413;-75
2021/07/08 09:49:05;;;;;;;5.13;1.55;;;19.80;99.90;;;;;;5016403;28;20017;-75
2021/07/08 09:51:32;;;;;;;3.95;1.90;;;20.00;99.90;;;;;;5021071;28;20029;-75
2021/07/08 09:54:12;;;;;;;5.65;2.05;;;20.20;99.90;;;;;;5018683;28;20500;-75
2021/07/08 09:56:50;;;;;;;6.35;1.75;;;20.20;99.90;;;;;;5020188;28;20101;-75
2021/07/08 09:59:21;;;;;;;5.28;1.85;;;20.20;99.90;;;;;;5020656;28;20107;-76
2021/07/08 10:01:56;;;;;;;4.68;1.73;;;20.20;99.90;;;;;;5009515;28;20034;-75
2021/07/08 10:04:22;;;;;;;6.72;1.65;;;20.10;99.90;;;;;;5002607;28;20022;-73
2021/07/08 10:06:48;;;;;;;5.95;2.28;;;19.90;99.90;;;;;;5023644;28;20045;-74
2021/07/08 10:09:18;;;;;;;6.40;2.15;;;20.10;99.90;;;;;;5030684;28;20401;-73
2021/07/08 10:11:54;;;;;;;7.55;2.10;;;20.10;99.90;;;;;;5030966;28;20029;-74
2021/07/08 10:14:20;;;;;;;5.90;2.00;;;20.10;99.90;;;;;;5030811;28;20030;-74
2021/07/08 10:16:53;;;;;;;4.93;1.60;;;20.20;99.90;;;;;;5030881;28;20108;-74
2021/07/08 10:19:21;;;;;;;5.38;2.28;;;20.30;99.90;;;;;;5030897;28;20028;-74
2021/07/08 10:21:48;;;;;;;6.13;2.08;;;20.50;99.90;;;;;;5030589;28;20021;-74
2021/07/08 10:24:15;;;;;;;10.65;2.40;;;20.50;99.90;;;;;;5032410;28;20025;-74
2021/07/08 10:26:43;;;;;;;5.78;2.05;;;20.40;99.90;;;;;;5032583;28;20029;-74
2021/07/08 10:29:11;;;;;;;6.43;2.35;;;20.30;99.90;;;;;;5014427;28;20398;-74
2021/07/08 10:31:39;;;;;;;5.38;2.35;;;20.40;99.90;;;;;;5032619;28;20013;-74
2021/07/08 10:34:13;;;;;;;5.65;2.40;;;20.40;99.90;;;;;;5032596;28;20026;-74
2021/07/08 10:36:41;;;;;;;8.35;2.70;;;20.40;99.90;;;;;;5031012;28;20476;-74
2021/07/08 10:39:21;;;;;;;7.55;2.85;;;20.60;99.90;;;;;;5032354;28;20037;-74
2021/07/08 10:41:55;;;;;;;8.60;3.17;;;20.70;99.90;;;;;;5031981;28;20028;-74
2021/07/08 10:44:41;;;;;;;12.15;3.47;;;20.40;99.90;;;;;;5032060;28;20554;-74
2021/07/08 10:47:37;;;;;;;6.40;2.70;;;20.40;99.90;;;;;;5032314;28;20160;-74
2021/07/08 10:50:27;;;;;;;7.70;3.50;;;20.70;99.90;;;;;;5032049;28;20013;-73
2021/07/08 10:52:53;;;;;;;7.75;3.20;;;20.70;99.90;;;;;;5031665;28;20021;-73
2021/07/08 10:55:42;;;;;;;4.80;3.10;;;20.90;99.90;;;;;;5032031;28;20022;-74
2021/07/08 10:58:36;;;;;;;7.22;3.17;;;20.70;99.90;;;;;;5031521;28;20068;-74
2021/07/08 11:01:02;;;;;;;9.95;3.47;;;20.70;99.90;;;;;;5031714;28;20433;-74
2021/07/08 11:03:44;;;;;;;8.15;4.10;;;20.60;99.90;;;;;;5030338;28;20022;-74
2021/07/08 11:06:23;;;;;;;9.48;4.05;;;20.40;99.90;;;;;;5031709;28;20104;-75
2021/07/08 11:08:55;;;;;;;11.60;4.25;;;20.40;99.90;;;;;;5031650;28;20052;-75
2021/07/08 11:11:22;;;;;;;6.65;3.30;;;20.40;99.90;;;;;;5031499;28;20543;-74
2021/07/08 11:13:51;;;;;;;9.00;3.55;;;20.50;99.90;;;;;;5031436;28;20029;-76
2021/07/08 11:16:39;;;;;;;8.38;4.50;;;20.50;99.90;;;;;;5017448;28;20123;-75
2021/07/08 11:19:05;;;;;;;9.05;4.05;;;20.50;99.90;;;;;;5022361;28;20028;-75
2021/07/08 11:21:49;;;;;;;8.85;4.07;;;20.30;99.90;;;;;;5029408;28;20021;-75
2021/07/08 11:24:26;;;;;;;10.82;4.25;;;20.10;99.90;;;;;;5028019;28;20037;-75
2021/07/08 11:27:02;;;;;;;7.75;3.63;;;20.40;99.90;;;;;;5030626;28;20022;-75
2021/07/08 11:29:32;;;;;;;8.10;3.40;;;20.50;99.90;;;;;;5030311;28;20029;-75
2021/07/08 11:31:57;;;;;;;10.30;4.25;;;20.50;99.90;;;;;;5030778;28;20025;-75
2021/07/08 11:34:25;;;;;;;5.38;3.20;;;20.70;99.90;;;;;;5030697;28;20424;-76
2021/07/08 11:36:52;;;;;;;6.15;3.13;;;20.50;99.90;;;;;;5030680;28;20504;-76
2021/07/08 11:39:21;;;;;;;8.27;4.10;;;20.60;99.90;;;;;;5031020;28;20021;-74
2021/07/08 11:41:49;;;;;;;10.18;3.40;;;20.70;99.90;;;;;;5030400;28;20030;-75
2021/07/08 11:44:17;;;;;;;6.40;3.83;;;20.70;99.90;;;;;;5030479;28;20400;-75
2021/07/08 11:46:43;;;;;;;6.65;2.58;;;20.70;99.90;;;;;;5030476;28;20070;-75
2021/07/08 11:49:11;;;;;;;7.28;2.67;;;20.80;99.90;;;;;;5030625;28;20397;-74
2021/07/08 11:51:36;;;;;;;10.27;2.92;;;20.70;99.90;;;;;;5030020;28;20013;-75
2021/07/08 11:54:06;;;;;;;4.32;2.35;;;20.80;99.90;;;;;;5009157;28;20041;-74
2021/07/08 11:56:31;;;;;;;8.60;2.85;;;20.80;99.90;;;;;;5024882;28;20254;-75
2021/07/08 11:59:04;;;;;;;6.07;2.70;;;20.90;99.90;;;;;;5030061;28;20256;-74
2021/07/08 12:01:30;;;;;;;5.25;2.92;;;21.00;99.90;;;;;;5029963;28;20041;-74
2021/07/08 12:03:55;;;;;;;6.40;2.45;;;21.00;99.90;;;;;;5029978;28;20028;-75
2021/07/08 12:06:25;;;;;;;10.35;3.72;;;21.00;99.90;;;;;;5030442;28;20486;-74
2021/07/08 12:09:00;;;;;;;5.55;2.30;;;20.90;99.90;;;;;;5030018;28;20506;-75
2021/07/08 12:11:41;;;;;;;6.50;2.65;;;20.90;99.90;;;;;;5030075;28;20049;-74
2021/07/08 12:14:12;;;;;;;7.28;3.45;;;20.90;99.90;;;;;;5029498;28;20021;-75
2021/07/08 12:16:48;;;;;;;5.13;2.72;;;20.90;99.90;;;;;;5029519;28;20033;-74
2021/07/08 12:19:27;;;;;;;10.15;3.25;;;20.80;99.90;;;;;;5029892;28;20100;-73
2021/07/08 12:21:55;;;;;;;6.85;2.60;;;20.80;99.90;;;;;;5030026;28;20260;-73
2021/07/08 12:24:29;;;;;;;6.72;2.65;;;21.00;99.90;;;;;;5029854;28;20104;-75
2021/07/08 12:26:57;;;;;;;6.82;2.80;;;21.20;99.90;;;;;;5029771;28;20025;-74
2021/07/08 12:29:28;;;;;;;8.75;3.42;;;21.30;99.90;;;;;;5029588;28;20026;-74
2021/07/08 12:32:03;;;;;;;6.60;2.53;;;21.40;99.90;;;;;;5029725;28;20029;-74
2021/07/08 12:34:47;;;;;;;6.80;2.85;;;21.50;99.90;;;;;;5029730;28;20025;-74
2021/07/08 12:37:28;;;;;;;8.73;2.92;;;21.20;99.90;;;;;;5029914;28;20063;-75
2021/07/08 12:39:57;;;;;;;5.82;3.20;;;21.50;99.90;;;;;;5029185;28;20052;-74
2021/07/08 12:42:25;;;;;;;6.90;2.65;;;21.60;99.90;;;;;;5028720;28;20474;-74
2021/07/08 12:44:53;;;;;;;10.38;4.18;;;21.70;99.90;;;;;;5011112;28;20026;-73
2021/07/08 12:47:19;;;;;;;9.05;3.30;;;21.30;99.90;;;;;;5015777;28;20417;-73
2021/07/08 12:49:47;;;;;;;5.35;3.25;;;21.30;99.90;;;;;;5015411;28;20467;-73
2021/07/08 12:52:13;;;;;;;7.82;2.78;;;21.40;99.90;;;;;;5027277;28;20052;-77